sensor_id;sensor_type;location;lat;lon;timestamp;P1;durP1;ratioP1;P2;durP2;ratioP2
66585;SDS011;53444;45.822;16.092;2024-02-23T00:00:06;1.20;;;0.70;;
66585;SDS011;53444;45.822;16.092;2024-02-23T00:02:36;2.17;;;0.80;;
66585;SDS011;53444;45.822;16.092;2024-02-23T00:05:05;1.20;;;0.80;;
66585;SDS011;53444;45.822;16.092;2024-02-23T00:07:32;3.95;;;0.88;;
66585;SDS011;53444;45.822;16.092;2024-02-23T00:09:58;2.30;;;1.00;;
66585;SDS011;53444;45.822;16.092;2024-02-23T00:12:25;1.53;;;1.00;;
66585;SDS011;53444;45.822;16.092;2024-02-23T00:14:52;1.40;;;0.73;;
66585;SDS011;53444;45.822;16.092;2024-02-23T00:17:18;1.65;;;0.63;;
66585;SDS011;53444;45.822;16.092;2024-02-23T00:19:45;1.10;;;0.60;;
66585;SDS011;53444;45.822;16.092;2024-02-23T00:22:13;1.20;;;0.40;;
66585;SDS011;53444;45.822;16.092;2024-02-23T00:24:40;1.07;;;0.40;;
66585;SDS011;53444;45.822;16.092;2024-02-23T00:27:07;1.13;;;0.50;;
66585;SDS011;53444;45.822;16.092;2024-02-23T00:29:33;0.70;;;0.40;;
66585;SDS011;53444;45.822;16.092;2024-02-23T00:32:01;1.23;;;0.40;;
66585;SDS011;53444;45.822;16.092;2024-02-23T00:34:28;0.93;;;0.57;;
66585;SDS011;53444;45.822;16.092;2024-02-23T00:36:55;0.67;;;0.40;;
66585;SDS011;53444;45.822;16.092;2024-02-23T00:39:23;0.60;;;0.40;;
66585;SDS011;53444;45.822;16.092;2024-02-23T00:41:50;0.98;;;0.40;;
66585;SDS011;53444;45.822;16.092;2024-02-23T00:44:17;0.90;;;0.30;;
66585;SDS011;53444;45.822;16.092;2024-02-23T00:46:43;0.75;;;0.30;;
66585;SDS011;53444;45.822;16.092;2024-02-23T00:49:10;0.67;;;0.30;;
66585;SDS011;53444;45.822;16.092;2024-02-23T00:51:37;0.98;;;0.30;;
66585;SDS011;53444;45.822;16.092;2024-02-23T00:54:03;0.73;;;0.30;;
66585;SDS011;53444;45.822;16.092;2024-02-23T00:56:32;0.45;;;0.30;;
66585;SDS011;53444;45.822;16.092;2024-02-23T00:58:59;0.77;;;0.30;;
66585;SDS011;53444;45.822;16.092;2024-02-23T01:01:25;0.40;;;0.30;;
66585;SDS011;53444;45.822;16.092;2024-02-23T01:03:53;0.50;;;0.30;;
66585;SDS011;53444;45.822;16.092;2024-02-23T01:06:20;1.05;;;0.30;;
66585;SDS011;53444;45.822;16.092;2024-02-23T01:08:47;0.50;;;0.30;;
66585;SDS011;53444;45.822;16.092;2024-02-23T01:11:14;0.70;;;0.30;;
66585;SDS011;53444;45.822;16.092;2024-02-23T01:13:42;0.77;;;0.30;;
66585;SDS011;53444;45.822;16.092;2024-02-23T01:16:08;0.77;;;0.40;;
66585;SDS011;53444;45.822;16.092;2024-02-23T01:18:35;0.60;;;0.30;;
66585;SDS011;53444;45.822;16.092;2024-02-23T01:21:02;0.50;;;0.30;;
66585;SDS011;53444;45.822;16.092;2024-02-23T01:23:29;1.73;;;0.30;;
66585;SDS011;53444;45.822;16.092;2024-02-23T01:25:56;0.67;;;0.30;;
66585;SDS011;53444;45.822;16.092;2024-02-23T01:28:23;0.77;;;0.32;;
66585;SDS011;53444;45.822;16.092;2024-02-23T01:30:52;0.65;;;0.32;;
66585;SDS011;53444;45.822;16.092;2024-02-23T01:33:18;0.95;;;0.38;;
66585;SDS011;53444;45.822;16.092;2024-02-23T01:35:45;1.05;;;0.30;;
66585;SDS011;53444;45.822;16.092;2024-02-23T01:38:12;0.50;;;0.30;;
66585;SDS011;53444;45.822;16.092;2024-02-23T01:40:44;0.50;;;0.25;;
66585;SDS011;53444;45.822;16.092;2024-02-23T01:43:10;1.35;;;0.50;;
66585;SDS011;53444;45.822;16.092;2024-02-23T01:45:37;3.20;;;0.50;;
66585;SDS011;53444;45.822;16.092;2024-02-23T01:48:06;0.60;;;0.30;;
66585;SDS011;53444;45.822;16.092;2024-02-23T01:50:33;0.60;;;0.37;;
66585;SDS011;53444;45.822;16.092;2024-02-23T01:53:01;0.70;;;0.30;;
66585;SDS011;53444;45.822;16.092;2024-02-23T01:55:28;0.63;;;0.43;;
66585;SDS011;53444;45.822;16.092;2024-02-23T01:57:56;0.70;;;0.40;;
66585;SDS011;53444;45.822;16.092;2024-02-23T02:00:22;1.92;;;0.43;;
66585;SDS011;53444;45.822;16.092;2024-02-23T02:02:49;1.70;;;0.70;;
66585;SDS011;53444;45.822;16.092;2024-02-23T02:05:17;0.80;;;0.50;;
66585;SDS011;53444;45.822;16.092;2024-02-23T02:07:44;1.50;;;0.60;;
66585;SDS011;53444;45.822;16.092;2024-02-23T02:10:12;1.00;;;0.50;;
66585;SDS011;53444;45.822;16.092;2024-02-23T02:12:39;1.35;;;0.60;;
66585;SDS011;53444;45.822;16.092;2024-02-23T02:15:06;1.00;;;0.43;;
66585;SDS011;53444;45.822;16.092;2024-02-23T02:17:33;0.50;;;0.40;;
66585;SDS011;53444;45.822;16.092;2024-02-23T02:20:02;0.55;;;0.40;;
66585;SDS011;53444;45.822;16.092;2024-02-23T02:22:33;1.48;;;0.60;;
66585;SDS011;53444;45.822;16.092;2024-02-23T02:24:59;0.90;;;0.50;;
66585;SDS011;53444;45.822;16.092;2024-02-23T02:27:26;0.90;;;0.40;;
66585;SDS011;53444;45.822;16.092;2024-02-23T02:29:53;1.45;;;0.40;;
66585;SDS011;53444;45.822;16.092;2024-02-23T02:32:19;1.58;;;0.75;;
66585;SDS011;53444;45.822;16.092;2024-02-23T02:34:46;1.45;;;0.60;;
66585;SDS011;53444;45.822;16.092;2024-02-23T02:37:13;4.57;;;0.50;;
66585;SDS011;53444;45.822;16.092;2024-02-23T02:39:41;1.43;;;0.40;;
66585;SDS011;53444;45.822;16.092;2024-02-23T02:42:08;0.90;;;0.40;;
66585;SDS011;53444;45.822;16.092;2024-02-23T02:44:35;2.13;;;0.70;;
66585;SDS011;53444;45.822;16.092;2024-02-23T02:47:02;3.17;;;0.70;;
66585;SDS011;53444;45.822;16.092;2024-02-23T02:49:29;1.00;;;0.43;;
66585;SDS011;53444;45.822;16.092;2024-02-23T02:51:55;0.73;;;0.40;;
66585;SDS011;53444;45.822;16.092;2024-02-23T02:54:22;0.70;;;0.47;;
66585;SDS011;53444;45.822;16.092;2024-02-23T02:56:50;0.60;;;0.30;;
66585;SDS011;53444;45.822;16.092;2024-02-23T02:59:19;0.73;;;0.40;;
66585;SDS011;53444;45.822;16.092;2024-02-23T03:01:46;1.25;;;0.50;;
66585;SDS011;53444;45.822;16.092;2024-02-23T03:04:13;0.50;;;0.30;;
66585;SDS011;53444;45.822;16.092;2024-02-23T03:06:39;1.13;;;0.50;;
66585;SDS011;53444;45.822;16.092;2024-02-23T03:09:06;0.75;;;0.50;;
66585;SDS011;53444;45.822;16.092;2024-02-23T03:11:33;1.45;;;0.30;;
66585;SDS011;53444;45.822;16.092;2024-02-23T03:14:01;0.98;;;0.43;;
66585;SDS011;53444;45.822;16.092;2024-02-23T03:16:28;1.00;;;0.40;;
66585;SDS011;53444;45.822;16.092;2024-02-23T03:18:56;0.75;;;0.40;;
66585;SDS011;53444;45.822;16.092;2024-02-23T03:21:23;0.70;;;0.40;;
66585;SDS011;53444;45.822;16.092;2024-02-23T03:23:49;1.58;;;0.40;;
66585;SDS011;53444;45.822;16.092;2024-02-23T03:26:16;0.57;;;0.40;;
66585;SDS011;53444;45.822;16.092;2024-02-23T03:28:43;0.73;;;0.40;;
66585;SDS011;53444;45.822;16.092;2024-02-23T03:31:11;0.90;;;0.50;;
66585;SDS011;53444;45.822;16.092;2024-02-23T03:33:38;0.90;;;0.50;;
66585;SDS011;53444;45.822;16.092;2024-02-23T03:36:05;0.70;;;0.40;;
66585;SDS011;53444;45.822;16.092;2024-02-23T03:38:32;0.95;;;0.40;;
66585;SDS011;53444;45.822;16.092;2024-02-23T03:40:59;0.70;;;0.37;;
66585;SDS011;53444;45.822;16.092;2024-02-23T03:43:26;0.57;;;0.38;;
66585;SDS011;53444;45.822;16.092;2024-02-23T03:45:53;0.73;;;0.38;;
66585;SDS011;53444;45.822;16.092;2024-02-23T03:48:21;0.63;;;0.38;;
66585;SDS011;53444;45.822;16.092;2024-02-23T03:50:47;0.82;;;0.50;;
66585;SDS011;53444;45.822;16.092;2024-02-23T03:53:14;1.57;;;0.50;;
66585;SDS011;53444;45.822;16.092;2024-02-23T03:55:41;0.82;;;0.60;;
66585;SDS011;53444;45.822;16.092;2024-02-23T03:58:08;1.38;;;0.40;;
66585;SDS011;53444;45.822;16.092;2024-02-23T04:00:34;0.68;;;0.40;;
66585;SDS011;53444;45.822;16.092;2024-02-23T04:03:01;1.02;;;0.50;;
66585;SDS011;53444;45.822;16.092;2024-02-23T04:05:29;0.60;;;0.50;;
66585;SDS011;53444;45.822;16.092;2024-02-23T04:07:56;1.00;;;0.50;;
66585;SDS011;53444;45.822;16.092;2024-02-23T04:10:23;0.93;;;0.47;;
66585;SDS011;53444;45.822;16.092;2024-02-23T04:12:49;1.40;;;0.40;;
66585;SDS011;53444;45.822;16.092;2024-02-23T04:15:16;1.58;;;0.57;;
66585;SDS011;53444;45.822;16.092;2024-02-23T04:17:43;1.10;;;0.40;;
66585;SDS011;53444;45.822;16.092;2024-02-23T04:20:10;1.23;;;0.55;;
66585;SDS011;53444;45.822;16.092;2024-02-23T04:22:40;2.03;;;0.70;;
66585;SDS011;53444;45.822;16.092;2024-02-23T04:25:07;0.80;;;0.32;;
66585;SDS011;53444;45.822;16.092;2024-02-23T04:27:34;1.15;;;0.77;;
66585;SDS011;53444;45.822;16.092;2024-02-23T04:30:01;0.97;;;0.40;;
66585;SDS011;53444;45.822;16.092;2024-02-23T04:32:27;0.90;;;0.52;;
66585;SDS011;53444;45.822;16.092;2024-02-23T04:34:55;1.77;;;0.55;;
66585;SDS011;53444;45.822;16.092;2024-02-23T04:37:22;1.50;;;0.80;;
66585;SDS011;53444;45.822;16.092;2024-02-23T04:39:50;1.30;;;0.70;;
66585;SDS011;53444;45.822;16.092;2024-02-23T04:42:17;1.60;;;0.77;;
66585;SDS011;53444;45.822;16.092;2024-02-23T04:44:44;2.22;;;0.55;;
66585;SDS011;53444;45.822;16.092;2024-02-23T04:47:11;1.52;;;0.50;;
66585;SDS011;53444;45.822;16.092;2024-02-23T04:49:37;1.85;;;0.60;;
66585;SDS011;53444;45.822;16.092;2024-02-23T04:52:05;0.93;;;0.47;;
66585;SDS011;53444;45.822;16.092;2024-02-23T04:54:32;1.00;;;0.40;;
66585;SDS011;53444;45.822;16.092;2024-02-23T04:57:00;1.30;;;0.40;;
66585;SDS011;53444;45.822;16.092;2024-02-23T04:59:27;1.40;;;0.60;;
66585;SDS011;53444;45.822;16.092;2024-02-23T05:01:55;1.63;;;0.63;;
66585;SDS011;53444;45.822;16.092;2024-02-23T05:04:21;1.65;;;0.68;;
66585;SDS011;53444;45.822;16.092;2024-02-23T05:06:48;2.00;;;0.70;;
66585;SDS011;53444;45.822;16.092;2024-02-23T05:09:15;3.28;;;1.40;;
66585;SDS011;53444;45.822;16.092;2024-02-23T05:11:41;2.83;;;1.17;;
66585;SDS011;53444;45.822;16.092;2024-02-23T05:14:10;2.58;;;1.30;;
66585;SDS011;53444;45.822;16.092;2024-02-23T05:16:36;1.88;;;0.75;;
66585;SDS011;53444;45.822;16.092;2024-02-23T05:19:03;1.50;;;0.80;;
66585;SDS011;53444;45.822;16.092;2024-02-23T05:21:30;2.08;;;0.70;;
66585;SDS011;53444;45.822;16.092;2024-02-23T05:23:57;1.63;;;0.77;;
66585;SDS011;53444;45.822;16.092;2024-02-23T05:26:24;1.67;;;0.77;;
66585;SDS011;53444;45.822;16.092;2024-02-23T05:28:50;1.55;;;0.85;;
66585;SDS011;53444;45.822;16.092;2024-02-23T05:31:19;1.27;;;0.67;;
66585;SDS011;53444;45.822;16.092;2024-02-23T05:33:45;2.13;;;0.80;;
66585;SDS011;53444;45.822;16.092;2024-02-23T05:36:16;1.48;;;0.80;;
66585;SDS011;53444;45.822;16.092;2024-02-23T05:38:43;5.80;;;0.80;;
66585;SDS011;53444;45.822;16.092;2024-02-23T05:41:11;1.92;;;1.00;;
66585;SDS011;53444;45.822;16.092;2024-02-23T05:43:42;1.40;;;0.80;;
66585;SDS011;53444;45.822;16.092;2024-02-23T05:46:08;1.30;;;0.70;;
66585;SDS011;53444;45.822;16.092;2024-02-23T05:48:38;1.52;;;0.80;;
66585;SDS011;53444;45.822;16.092;2024-02-23T05:51:05;1.30;;;0.82;;
66585;SDS011;53444;45.822;16.092;2024-02-23T05:53:32;2.67;;;0.70;;
66585;SDS011;53444;45.822;16.092;2024-02-23T05:56:03;1.60;;;0.80;;
66585;SDS011;53444;45.822;16.092;2024-02-23T05:58:30;2.85;;;0.90;;
66585;SDS011;53444;45.822;16.092;2024-02-23T06:00:57;1.60;;;0.70;;
66585;SDS011;53444;45.822;16.092;2024-02-23T06:03:25;1.63;;;0.85;;
66585;SDS011;53444;45.822;16.092;2024-02-23T06:05:53;4.78;;;1.30;;
66585;SDS011;53444;45.822;16.092;2024-02-23T06:08:20;1.97;;;0.80;;
66585;SDS011;53444;45.822;16.092;2024-02-23T06:10:47;4.25;;;1.45;;
66585;SDS011;53444;45.822;16.092;2024-02-23T06:13:14;2.63;;;1.00;;
66585;SDS011;53444;45.822;16.092;2024-02-23T06:15:41;5.53;;;1.00;;
66585;SDS011;53444;45.822;16.092;2024-02-23T06:18:08;2.25;;;0.90;;
66585;SDS011;53444;45.822;16.092;2024-02-23T06:20:35;2.50;;;1.00;;
66585;SDS011;53444;45.822;16.092;2024-02-23T06:23:03;2.70;;;1.30;;
66585;SDS011;53444;45.822;16.092;2024-02-23T06:25:30;3.13;;;1.52;;
66585;SDS011;53444;45.822;16.092;2024-02-23T06:27:57;3.42;;;1.75;;
66585;SDS011;53444;45.822;16.092;2024-02-23T06:30:24;4.00;;;1.77;;
66585;SDS011;53444;45.822;16.092;2024-02-23T06:32:51;2.40;;;1.30;;
66585;SDS011;53444;45.822;16.092;2024-02-23T06:35:17;3.28;;;1.50;;
66585;SDS011;53444;45.822;16.092;2024-02-23T06:37:47;3.72;;;1.50;;
66585;SDS011;53444;45.822;16.092;2024-02-23T06:40:15;4.30;;;2.10;;
66585;SDS011;53444;45.822;16.092;2024-02-23T06:42:43;3.75;;;2.60;;
66585;SDS011;53444;45.822;16.092;2024-02-23T06:45:10;4.37;;;2.77;;
66585;SDS011;53444;45.822;16.092;2024-02-23T06:47:37;5.30;;;2.75;;
66585;SDS011;53444;45.822;16.092;2024-02-23T06:50:05;3.25;;;2.05;;
66585;SDS011;53444;45.822;16.092;2024-02-23T06:52:33;4.38;;;1.75;;
66585;SDS011;53444;45.822;16.092;2024-02-23T06:55:00;2.58;;;1.55;;
66585;SDS011;53444;45.822;16.092;2024-02-23T06:57:28;4.80;;;1.80;;
66585;SDS011;53444;45.822;16.092;2024-02-23T06:59:56;4.28;;;2.10;;
66585;SDS011;53444;45.822;16.092;2024-02-23T07:02:22;7.00;;;2.20;;
66585;SDS011;53444;45.822;16.092;2024-02-23T07:04:49;3.63;;;2.17;;
66585;SDS011;53444;45.822;16.092;2024-02-23T07:07:16;5.68;;;2.40;;
66585;SDS011;53444;45.822;16.092;2024-02-23T07:09:42;5.27;;;2.93;;
66585;SDS011;53444;45.822;16.092;2024-02-23T07:12:09;6.15;;;2.50;;
66585;SDS011;53444;45.822;16.092;2024-02-23T07:14:40;5.85;;;3.08;;
66585;SDS011;53444;45.822;16.092;2024-02-23T07:17:06;6.35;;;3.40;;
66585;SDS011;53444;45.822;16.092;2024-02-23T07:19:34;6.25;;;3.08;;
66585;SDS011;53444;45.822;16.092;2024-02-23T07:22:00;6.33;;;3.57;;
66585;SDS011;53444;45.822;16.092;2024-02-23T07:24:28;16.02;;;5.00;;
66585;SDS011;53444;45.822;16.092;2024-02-23T07:26:55;14.65;;;4.80;;
66585;SDS011;53444;45.822;16.092;2024-02-23T07:29:21;16.98;;;5.53;;
66585;SDS011;53444;45.822;16.092;2024-02-23T07:31:49;20.15;;;6.03;;
66585;SDS011;53444;45.822;16.092;2024-02-23T07:34:16;20.13;;;6.00;;
66585;SDS011;53444;45.822;16.092;2024-02-23T07:36:43;16.10;;;5.07;;
66585;SDS011;53444;45.822;16.092;2024-02-23T07:39:10;9.82;;;3.97;;
66585;SDS011;53444;45.822;16.092;2024-02-23T07:41:37;18.08;;;5.03;;
66585;SDS011;53444;45.822;16.092;2024-02-23T07:44:04;8.70;;;5.20;;
66585;SDS011;53444;45.822;16.092;2024-02-23T07:46:30;10.47;;;4.77;;
66585;SDS011;53444;45.822;16.092;2024-02-23T07:48:58;11.73;;;6.00;;
66585;SDS011;53444;45.822;16.092;2024-02-23T07:51:25;19.58;;;11.15;;
66585;SDS011;53444;45.822;16.092;2024-02-23T07:53:52;16.17;;;10.85;;
66585;SDS011;53444;45.822;16.092;2024-02-23T07:56:18;12.57;;;8.07;;
66585;SDS011;53444;45.822;16.092;2024-02-23T07:58:45;13.57;;;7.20;;
66585;SDS011;53444;45.822;16.092;2024-02-23T08:01:12;14.55;;;5.88;;
66585;SDS011;53444;45.822;16.092;2024-02-23T08:03:40;15.75;;;6.05;;
66585;SDS011;53444;45.822;16.092;2024-02-23T08:06:08;17.95;;;6.25;;
66585;SDS011;53444;45.822;16.092;2024-02-23T08:08:35;25.02;;;7.93;;
66585;SDS011;53444;45.822;16.092;2024-02-23T08:11:02;20.40;;;6.90;;
66585;SDS011;53444;45.822;16.092;2024-02-23T08:13:29;24.50;;;8.13;;
66585;SDS011;53444;45.822;16.092;2024-02-23T08:15:55;11.50;;;4.80;;
66585;SDS011;53444;45.822;16.092;2024-02-23T08:18:22;7.13;;;3.40;;
66585;SDS011;53444;45.822;16.092;2024-02-23T08:20:49;7.25;;;3.70;;
66585;SDS011;53444;45.822;16.092;2024-02-23T08:23:17;9.17;;;3.43;;
66585;SDS011;53444;45.822;16.092;2024-02-23T08:25:45;6.60;;;3.35;;
66585;SDS011;53444;45.822;16.092;2024-02-23T08:28:13;7.13;;;3.90;;
66585;SDS011;53444;45.822;16.092;2024-02-23T08:30:39;5.07;;;2.78;;
66585;SDS011;53444;45.822;16.092;2024-02-23T08:33:06;6.82;;;3.83;;
66585;SDS011;53444;45.822;16.092;2024-02-23T08:35:35;8.30;;;2.87;;
66585;SDS011;53444;45.822;16.092;2024-02-23T08:38:01;10.40;;;3.33;;
66585;SDS011;53444;45.822;16.092;2024-02-23T08:40:30;5.85;;;2.90;;
66585;SDS011;53444;45.822;16.092;2024-02-23T08:42:57;3.85;;;2.35;;
66585;SDS011;53444;45.822;16.092;2024-02-23T08:45:23;5.10;;;2.63;;
66585;SDS011;53444;45.822;16.092;2024-02-23T08:47:50;4.13;;;1.90;;
66585;SDS011;53444;45.822;16.092;2024-02-23T08:50:17;8.45;;;2.30;;
66585;SDS011;53444;45.822;16.092;2024-02-23T08:52:43;4.60;;;2.20;;
66585;SDS011;53444;45.822;16.092;2024-02-23T08:55:10;3.55;;;2.03;;
66585;SDS011;53444;45.822;16.092;2024-02-23T08:57:39;5.32;;;2.00;;
66585;SDS011;53444;45.822;16.092;2024-02-23T09:00:06;3.50;;;2.10;;
66585;SDS011;53444;45.822;16.092;2024-02-23T09:02:34;3.80;;;2.00;;
66585;SDS011;53444;45.822;16.092;2024-02-23T09:05:03;3.45;;;2.10;;
66585;SDS011;53444;45.822;16.092;2024-02-23T09:07:30;3.78;;;2.20;;
66585;SDS011;53444;45.822;16.092;2024-02-23T09:09:57;3.58;;;1.90;;
66585;SDS011;53444;45.822;16.092;2024-02-23T09:12:24;4.23;;;2.33;;
66585;SDS011;53444;45.822;16.092;2024-02-23T09:14:52;3.83;;;1.85;;
66585;SDS011;53444;45.822;16.092;2024-02-23T09:17:19;4.28;;;1.75;;
66585;SDS011;53444;45.822;16.092;2024-02-23T09:19:46;3.97;;;2.20;;
66585;SDS011;53444;45.822;16.092;2024-02-23T09:22:12;2.72;;;1.92;;
66585;SDS011;53444;45.822;16.092;2024-02-23T09:24:40;3.60;;;1.93;;
66585;SDS011;53444;45.822;16.092;2024-02-23T09:27:07;3.22;;;2.17;;
66585;SDS011;53444;45.822;16.092;2024-02-23T09:29:34;4.43;;;2.50;;
66585;SDS011;53444;45.822;16.092;2024-02-23T09:32:03;4.15;;;2.40;;
66585;SDS011;53444;45.822;16.092;2024-02-23T09:34:30;3.95;;;2.30;;
66585;SDS011;53444;45.822;16.092;2024-02-23T09:36:57;4.10;;;2.00;;
66585;SDS011;53444;45.822;16.092;2024-02-23T09:39:25;3.83;;;1.98;;
66585;SDS011;53444;45.822;16.092;2024-02-23T09:41:55;3.60;;;2.20;;
66585;SDS011;53444;45.822;16.092;2024-02-23T09:44:23;4.72;;;2.03;;
66585;SDS011;53444;45.822;16.092;2024-02-23T09:46:49;5.53;;;2.15;;
66585;SDS011;53444;45.822;16.092;2024-02-23T09:49:17;4.07;;;2.00;;
66585;SDS011;53444;45.822;16.092;2024-02-23T09:51:44;4.72;;;2.42;;
66585;SDS011;53444;45.822;16.092;2024-02-23T09:54:11;4.60;;;2.10;;
66585;SDS011;53444;45.822;16.092;2024-02-23T09:56:38;4.45;;;2.40;;
66585;SDS011;53444;45.822;16.092;2024-02-23T09:59:06;4.72;;;1.80;;
66585;SDS011;53444;45.822;16.092;2024-02-23T10:01:33;4.37;;;1.60;;
66585;SDS011;53444;45.822;16.092;2024-02-23T10:04:01;5.05;;;2.65;;
66585;SDS011;53444;45.822;16.092;2024-02-23T10:06:31;9.13;;;3.63;;
66585;SDS011;53444;45.822;16.092;2024-02-23T10:08:57;10.10;;;3.38;;
66585;SDS011;53444;45.822;16.092;2024-02-23T10:11:24;4.78;;;2.60;;
66585;SDS011;53444;45.822;16.092;2024-02-23T10:13:51;8.83;;;2.57;;
66585;SDS011;53444;45.822;16.092;2024-02-23T10:16:18;11.00;;;2.80;;
66585;SDS011;53444;45.822;16.092;2024-02-23T10:18:46;6.30;;;2.83;;
66585;SDS011;53444;45.822;16.092;2024-02-23T10:21:13;7.53;;;2.60;;
66585;SDS011;53444;45.822;16.092;2024-02-23T10:23:41;4.55;;;2.00;;
66585;SDS011;53444;45.822;16.092;2024-02-23T10:26:10;3.17;;;1.70;;
66585;SDS011;53444;45.822;16.092;2024-02-23T10:28:37;4.18;;;1.90;;
66585;SDS011;53444;45.822;16.092;2024-02-23T10:31:04;4.43;;;1.90;;
66585;SDS011;53444;45.822;16.092;2024-02-23T10:33:32;3.83;;;2.20;;
66585;SDS011;53444;45.822;16.092;2024-02-23T10:35:58;8.45;;;2.85;;
66585;SDS011;53444;45.822;16.092;2024-02-23T10:38:27;3.67;;;2.10;;
66585;SDS011;53444;45.822;16.092;2024-02-23T10:40:58;6.82;;;2.75;;
66585;SDS011;53444;45.822;16.092;2024-02-23T10:43:33;5.18;;;2.80;;
66585;SDS011;53444;45.822;16.092;2024-02-23T10:46:02;5.10;;;2.75;;
66585;SDS011;53444;45.822;16.092;2024-02-23T10:48:33;5.60;;;2.63;;
66585;SDS011;53444;45.822;16.092;2024-02-23T10:51:01;4.43;;;2.63;;
66585;SDS011;53444;45.822;16.092;2024-02-23T10:53:31;7.18;;;3.20;;
66585;SDS011;53444;45.822;16.092;2024-02-23T10:55:59;5.82;;;3.15;;
66585;SDS011;53444;45.822;16.092;2024-02-23T10:58:34;5.55;;;2.50;;
66585;SDS011;53444;45.822;16.092;2024-02-23T11:01:07;4.55;;;2.70;;
66585;SDS011;53444;45.822;16.092;2024-02-23T11:03:36;7.63;;;2.70;;
66585;SDS011;53444;45.822;16.092;2024-02-23T11:06:05;3.90;;;2.45;;
66585;SDS011;53444;45.822;16.092;2024-02-23T11:08:32;5.35;;;3.08;;
66585;SDS011;53444;45.822;16.092;2024-02-23T11:11:08;5.70;;;2.90;;
66585;SDS011;53444;45.822;16.092;2024-02-23T11:13:36;5.13;;;2.88;;
66585;SDS011;53444;45.822;16.092;2024-02-23T11:16:05;4.97;;;2.87;;
66585;SDS011;53444;45.822;16.092;2024-02-23T11:18:35;4.93;;;3.00;;
66585;SDS011;53444;45.822;16.092;2024-02-23T11:21:10;5.45;;;2.75;;
66585;SDS011;53444;45.822;16.092;2024-02-23T11:23:40;4.90;;;2.53;;
66585;SDS011;53444;45.822;16.092;2024-02-23T11:26:16;6.70;;;3.42;;
66585;SDS011;53444;45.822;16.092;2024-02-23T11:28:56;6.73;;;4.00;;
66585;SDS011;53444;45.822;16.092;2024-02-23T11:31:24;8.02;;;3.10;;
66585;SDS011;53444;45.822;16.092;2024-02-23T11:34:00;3.88;;;2.78;;
66585;SDS011;53444;45.822;16.092;2024-02-23T11:36:28;4.57;;;2.80;;
66585;SDS011;53444;45.822;16.092;2024-02-23T11:38:59;7.35;;;2.88;;
66585;SDS011;53444;45.822;16.092;2024-02-23T11:41:28;4.63;;;2.60;;
66585;SDS011;53444;45.822;16.092;2024-02-23T11:43:56;4.90;;;2.53;;
66585;SDS011;53444;45.822;16.092;2024-02-23T11:46:23;4.05;;;2.50;;
66585;SDS011;53444;45.822;16.092;2024-02-23T11:48:50;3.83;;;2.60;;
66585;SDS011;53444;45.822;16.092;2024-02-23T11:51:19;5.10;;;2.72;;
66585;SDS011;53444;45.822;16.092;2024-02-23T11:53:47;5.00;;;2.77;;
66585;SDS011;53444;45.822;16.092;2024-02-23T11:56:14;6.05;;;3.00;;
66585;SDS011;53444;45.822;16.092;2024-02-23T11:58:42;5.18;;;2.97;;
66585;SDS011;53444;45.822;16.092;2024-02-23T12:01:11;7.18;;;3.22;;
66585;SDS011;53444;45.822;16.092;2024-02-23T12:03:38;4.63;;;3.25;;
66585;SDS011;53444;45.822;16.092;2024-02-23T12:06:06;4.30;;;3.00;;
66585;SDS011;53444;45.822;16.092;2024-02-23T12:08:35;6.13;;;3.78;;
66585;SDS011;53444;45.822;16.092;2024-02-23T12:11:04;5.65;;;3.65;;
66585;SDS011;53444;45.822;16.092;2024-02-23T12:13:38;7.15;;;3.72;;
66585;SDS011;53444;45.822;16.092;2024-02-23T12:16:09;6.90;;;3.95;;
66585;SDS011;53444;45.822;16.092;2024-02-23T12:18:36;7.63;;;4.40;;
66585;SDS011;53444;45.822;16.092;2024-02-23T12:21:04;7.07;;;4.35;;
66585;SDS011;53444;45.822;16.092;2024-02-23T12:23:39;10.20;;;4.75;;
66585;SDS011;53444;45.822;16.092;2024-02-23T12:26:07;16.75;;;7.57;;
66585;SDS011;53444;45.822;16.092;2024-02-23T12:28:35;11.02;;;4.65;;
66585;SDS011;53444;45.822;16.092;2024-02-23T12:31:02;4.50;;;2.90;;
66585;SDS011;53444;45.822;16.092;2024-02-23T12:33:32;4.78;;;2.92;;
66585;SDS011;53444;45.822;16.092;2024-02-23T12:36:00;6.15;;;2.95;;
66585;SDS011;53444;45.822;16.092;2024-02-23T12:38:28;4.22;;;2.70;;
66585;SDS011;53444;45.822;16.092;2024-02-23T12:40:55;4.97;;;3.00;;
66585;SDS011;53444;45.822;16.092;2024-02-23T12:43:22;5.17;;;3.53;;
66585;SDS011;53444;45.822;16.092;2024-02-23T12:45:49;5.97;;;3.15;;
66585;SDS011;53444;45.822;16.092;2024-02-23T12:48:16;5.32;;;3.40;;
66585;SDS011;53444;45.822;16.092;2024-02-23T12:50:44;5.60;;;3.20;;
66585;SDS011;53444;45.822;16.092;2024-02-23T12:53:12;4.90;;;2.70;;
66585;SDS011;53444;45.822;16.092;2024-02-23T12:55:57;4.53;;;2.63;;
66585;SDS011;53444;45.822;16.092;2024-02-23T12:58:24;4.95;;;2.80;;
66585;SDS011;53444;45.822;16.092;2024-02-23T13:00:51;6.85;;;3.63;;
66585;SDS011;53444;45.822;16.092;2024-02-23T13:03:18;7.93;;;4.20;;
66585;SDS011;53444;45.822;16.092;2024-02-23T13:05:46;8.02;;;4.57;;
66585;SDS011;53444;45.822;16.092;2024-02-23T13:08:13;7.93;;;4.53;;
66585;SDS011;53444;45.822;16.092;2024-02-23T13:10:40;7.30;;;4.07;;
66585;SDS011;53444;45.822;16.092;2024-02-23T13:13:07;9.35;;;4.50;;
66585;SDS011;53444;45.822;16.092;2024-02-23T13:15:33;7.65;;;3.97;;
66585;SDS011;53444;45.822;16.092;2024-02-23T13:18:01;15.02;;;6.47;;
66585;SDS011;53444;45.822;16.092;2024-02-23T13:20:29;11.83;;;4.87;;
66585;SDS011;53444;45.822;16.092;2024-02-23T13:22:57;11.23;;;5.38;;
66585;SDS011;53444;45.822;16.092;2024-02-23T13:25:27;9.98;;;4.90;;
66585;SDS011;53444;45.822;16.092;2024-02-23T13:27:54;8.45;;;4.95;;
66585;SDS011;53444;45.822;16.092;2024-02-23T13:30:24;8.68;;;4.43;;
66585;SDS011;53444;45.822;16.092;2024-02-23T13:32:51;8.07;;;4.40;;
66585;SDS011;53444;45.822;16.092;2024-02-23T13:35:18;5.15;;;3.50;;
66585;SDS011;53444;45.822;16.092;2024-02-23T13:37:45;8.43;;;4.47;;
66585;SDS011;53444;45.822;16.092;2024-02-23T13:40:14;8.10;;;4.60;;
66585;SDS011;53444;45.822;16.092;2024-02-23T13:42:42;6.50;;;3.67;;
66585;SDS011;53444;45.822;16.092;2024-02-23T13:45:11;9.00;;;3.00;;
66585;SDS011;53444;45.822;16.092;2024-02-23T13:47:39;4.68;;;2.63;;
66585;SDS011;53444;45.822;16.092;2024-02-23T13:50:08;3.72;;;2.50;;
66585;SDS011;53444;45.822;16.092;2024-02-23T13:52:35;3.83;;;2.45;;
66585;SDS011;53444;45.822;16.092;2024-02-23T13:55:02;6.43;;;2.42;;
66585;SDS011;53444;45.822;16.092;2024-02-23T13:57:30;3.63;;;2.20;;
66585;SDS011;53444;45.822;16.092;2024-02-23T13:59:58;6.43;;;2.25;;
66585;SDS011;53444;45.822;16.092;2024-02-23T14:02:25;4.25;;;2.67;;
66585;SDS011;53444;45.822;16.092;2024-02-23T14:04:59;6.40;;;2.22;;
66585;SDS011;53444;45.822;16.092;2024-02-23T14:07:31;4.38;;;2.40;;
66585;SDS011;53444;45.822;16.092;2024-02-23T14:09:58;3.63;;;2.50;;
66585;SDS011;53444;45.822;16.092;2024-02-23T14:12:25;4.82;;;2.60;;
66585;SDS011;53444;45.822;16.092;2024-02-23T14:14:54;4.47;;;2.53;;
66585;SDS011;53444;45.822;16.092;2024-02-23T14:17:21;7.80;;;2.63;;
66585;SDS011;53444;45.822;16.092;2024-02-23T14:19:48;4.72;;;2.80;;
66585;SDS011;53444;45.822;16.092;2024-02-23T14:22:16;4.47;;;2.57;;
66585;SDS011;53444;45.822;16.092;2024-02-23T14:24:43;6.70;;;3.00;;
66585;SDS011;53444;45.822;16.092;2024-02-23T14:27:16;3.13;;;2.35;;
66585;SDS011;53444;45.822;16.092;2024-02-23T14:29:43;5.43;;;2.50;;
66585;SDS011;53444;45.822;16.092;2024-02-23T14:32:11;4.57;;;2.72;;
66585;SDS011;53444;45.822;16.092;2024-02-23T14:34:42;4.33;;;2.93;;